createdAt,value
2023-02-13T00:01:03.071Z,-6.58
2023-02-13T00:03:30.271Z,-6.60
2023-02-13T00:05:58.509Z,-6.66
2023-02-13T00:08:25.580Z,-6.69
2023-02-13T00:11:02.388Z,-6.67
2023-02-13T00:13:29.595Z,-6.68
2023-02-13T00:15:59.020Z,-6.72
2023-02-13T00:18:27.234Z,-6.71
2023-02-13T00:21:03.180Z,-6.70
2023-02-13T00:23:34.608Z,-6.69
2023-02-13T00:26:01.872Z,-6.74
2023-02-13T00:28:31.361Z,-6.78
2023-02-13T00:31:05.762Z,-6.74
2023-02-13T00:33:33.074Z,-6.75
2023-02-13T00:36:07.771Z,-6.78
2023-02-13T00:38:35.622Z,-6.83
2023-02-13T00:41:02.833Z,-6.80
2023-02-13T00:43:30.420Z,-6.76
2023-02-13T00:45:58.879Z,-6.76
2023-02-13T00:48:27.431Z,-6.77
2023-02-13T00:50:54.482Z,-6.76
2023-02-13T00:53:22.726Z,-6.77
2023-02-13T00:55:49.921Z,-6.71
2023-02-13T00:58:17.616Z,-6.69
2023-02-13T01:00:44.777Z,-6.75
2023-02-13T01:03:11.748Z,-6.78
2023-02-13T01:05:42.005Z,-6.81
2023-02-13T01:08:09.551Z,-6.82
2023-02-13T01:10:38.580Z,-6.79
2023-02-13T01:13:07.791Z,-6.82
2023-02-13T01:15:35.081Z,-6.86
2023-02-13T01:18:03.448Z,-6.91
2023-02-13T01:20:30.894Z,-6.87
2023-02-13T01:23:01.771Z,-6.85
2023-02-13T01:25:29.734Z,-6.90
2023-02-13T01:27:56.802Z,-6.91
2023-02-13T01:30:23.793Z,-6.91
2023-02-13T01:32:53.454Z,-6.91
2023-02-13T01:35:20.720Z,-6.86
2023-02-13T01:37:52.249Z,-6.84
2023-02-13T01:40:19.348Z,-6.86
2023-02-13T01:42:46.186Z,-6.92
2023-02-13T01:45:19.105Z,-6.96
2023-02-13T01:47:52.754Z,-6.97
2023-02-13T01:50:26.066Z,-6.98
2023-02-13T01:53:14.964Z,-7.02
2023-02-13T01:55:49.341Z,-7.08
2023-02-13T01:58:18.852Z,-7.08
2023-02-13T02:00:49.882Z,-7.08
2023-02-13T02:03:21.815Z,-7.11
2023-02-13T02:05:49.308Z,-7.12
2023-02-13T02:08:17.421Z,-7.15
2023-02-13T02:10:45.373Z,-7.17
2023-02-13T02:13:19.820Z,-7.14
2023-02-13T02:15:48.781Z,-7.19
2023-02-13T02:18:18.189Z,-7.26
2023-02-13T02:21:07.722Z,-7.29
2023-02-13T02:23:53.635Z,-7.29
2023-02-13T02:26:45.569Z,-7.34
2023-02-13T02:29:52.031Z,-7.37
2023-02-13T02:32:50.982Z,-7.41
2023-02-13T02:35:44.378Z,-7.39
2023-02-13T02:38:36.522Z,-7.43
2023-02-13T02:41:10.679Z,-7.46
2023-02-13T02:44:08.156Z,-7.48
2023-02-13T02:47:14.896Z,-7.45
2023-02-13T02:50:02.162Z,-7.49
2023-02-13T02:52:37.540Z,-7.53
2023-02-13T02:55:37.142Z,-7.59
2023-02-13T02:58:51.208Z,-7.59
2023-02-13T03:01:38.724Z,-7.52
2023-02-13T03:04:29.692Z,-7.57
2023-02-13T03:06:58.137Z,-7.65
2023-02-13T03:09:56.340Z,-7.66
2023-02-13T03:12:43.485Z,-7.70
2023-02-13T03:15:10.766Z,-7.70
2023-02-13T03:17:56.285Z,-7.66
2023-02-13T03:20:46.613Z,-7.62
2023-02-13T03:23:32.244Z,-7.60
2023-02-13T03:26:52.661Z,-7.64
2023-02-13T03:29:42.578Z,-7.67
2023-02-13T03:32:33.403Z,-7.67
2023-02-13T03:35:48.245Z,-7.65
2023-02-13T03:38:25.586Z,-7.64
2023-02-13T03:41:14.612Z,-7.63
2023-02-13T03:44:02.160Z,-7.65
2023-02-13T03:46:33.810Z,-7.69
2023-02-13T03:49:23.836Z,-7.69
2023-02-13T03:51:57.773Z,-7.65
2023-02-13T03:54:53.578Z,-7.59
2023-02-13T03:57:39.617Z,-7.54
2023-02-13T04:00:10.078Z,-7.50
2023-02-13T04:02:52.647Z,-7.47
2023-02-13T04:05:22.824Z,-7.49
2023-02-13T04:07:49.738Z,-7.54
2023-02-13T04:10:19.829Z,-7.64
2023-02-13T04:13:01.086Z,-7.68
2023-02-13T04:15:45.617Z,-7.60
2023-02-13T04:18:20.461Z,-7.55
2023-02-13T04:20:47.433Z,-7.57
2023-02-13T04:23:14.891Z,-7.63
2023-02-13T04:25:43.451Z,-7.66
2023-02-13T04:28:11.395Z,-7.70
2023-02-13T04:30:39.042Z,-7.81
2023-02-13T04:33:06.688Z,-7.85
2023-02-13T04:35:35.433Z,-7.88
2023-02-13T04:38:03.487Z,-7.88
2023-02-13T04:40:30.427Z,-7.83
2023-02-13T04:42:57.940Z,-7.80
2023-02-13T04:45:25.148Z,-7.77
2023-02-13T04:50:42.950Z,-7.70
2023-02-13T04:53:10.221Z,-7.74
2023-02-13T04:55:37.555Z,-7.79
2023-02-13T04:58:04.910Z,-7.90
2023-02-13T05:00:32.472Z,-7.96
2023-02-13T05:03:05.933Z,-8.05
2023-02-13T05:05:33.634Z,-8.05
2023-02-13T05:08:01.390Z,-7.99
2023-02-13T05:10:28.545Z,-7.92
2023-02-13T05:12:55.690Z,-7.90
2023-02-13T05:15:23.971Z,-7.90
2023-02-13T05:17:51.436Z,-7.87
2023-02-13T05:20:19.015Z,-7.83
2023-02-13T05:23:09.487Z,-7.74
2023-02-13T05:25:38.481Z,-7.64
2023-02-13T05:35:49.095Z,-7.35
2023-02-13T05:38:16.648Z,-7.34
2023-02-13T05:40:43.798Z,-7.33
2023-02-13T05:43:11.058Z,-7.36
2023-02-13T05:45:38.203Z,-7.46
2023-02-13T05:48:07.098Z,-7.56
2023-02-13T05:50:34.879Z,-7.60
2023-02-13T05:53:02.564Z,-7.63
2023-02-13T05:55:30.191Z,-7.53
2023-02-13T05:57:58.158Z,-7.45
2023-02-13T06:00:26.216Z,-7.37
2023-02-13T06:02:53.343Z,-7.39
2023-02-13T06:05:21.094Z,-7.42
2023-02-13T06:07:48.591Z,-7.36
2023-02-13T06:10:16.143Z,-7.34
2023-02-13T06:12:44.089Z,-7.34
2023-02-13T06:15:11.277Z,-7.27
2023-02-13T06:17:38.626Z,-7.15
2023-02-13T06:20:07.257Z,-7.05
2023-02-13T06:22:36.911Z,-6.98
2023-02-13T06:25:04.473Z,-6.93
2023-02-13T06:27:31.936Z,-6.87
2023-02-13T06:29:59.001Z,-6.75
2023-02-13T06:32:26.904Z,-6.55
2023-02-13T06:34:54.218Z,-6.34
2023-02-13T06:37:21.482Z,-6.10
2023-02-13T06:39:48.917Z,-5.82
2023-02-13T06:42:16.394Z,-5.64
2023-02-13T06:44:45.697Z,-5.46
2023-02-13T06:47:12.918Z,-5.21
2023-02-13T06:49:40.061Z,-5.07
2023-02-13T06:52:07.658Z,-5.07
2023-02-13T06:54:46.832Z,-5.20
2023-02-13T06:57:15.645Z,-5.47
2023-02-13T06:59:45.623Z,-5.63
2023-02-13T07:02:14.145Z,-5.73
2023-02-13T07:04:45.643Z,-5.76
2023-02-13T07:07:13.188Z,-5.76
2023-02-13T07:09:41.432Z,-5.77
2023-02-13T07:12:08.986Z,-5.76
2023-02-13T07:14:36.852Z,-5.65
2023-02-13T07:17:06.483Z,-5.63
2023-02-13T07:19:33.865Z,-5.60
2023-02-13T07:22:01.390Z,-5.53
2023-02-13T07:24:28.643Z,-5.47
2023-02-13T07:26:55.667Z,-5.36
2023-02-13T07:29:23.052Z,-5.18
2023-02-13T07:31:50.497Z,-4.85
2023-02-13T07:34:18.348Z,-4.51
2023-02-13T07:36:45.543Z,-4.33
2023-02-13T07:39:13.892Z,-4.37
2023-02-13T07:41:41.649Z,-4.47
2023-02-13T07:44:09.436Z,-4.47
2023-02-13T07:46:37.982Z,-4.45
2023-02-13T07:49:05.456Z,-4.48
2023-02-13T07:51:32.921Z,-4.64
2023-02-13T07:54:01.837Z,-4.65
2023-02-13T07:56:29.007Z,-4.43
2023-02-13T07:58:56.136Z,-4.21
2023-02-13T08:01:23.375Z,-4.06
2023-02-13T08:03:51.761Z,-3.93
2023-02-13T08:06:20.155Z,-3.91
2023-02-13T08:08:48.050Z,-3.86
2023-02-13T08:11:48.144Z,-3.84
2023-02-13T08:14:16.065Z,-3.84
2023-02-13T08:16:47.001Z,-3.86
2023-02-13T08:19:14.877Z,-3.73
2023-02-13T08:21:42.148Z,-3.57
2023-02-13T08:24:11.830Z,-3.29
2023-02-13T08:26:40.241Z,-2.93
2023-02-13T08:29:08.739Z,-2.76
2023-02-13T08:31:36.266Z,-2.69
2023-02-13T08:34:03.841Z,-2.54
2023-02-13T08:36:31.889Z,-2.31
2023-02-13T08:39:00.048Z,-2.00
2023-02-13T08:41:27.732Z,-1.91
2023-02-13T08:43:55.546Z,-1.78
2023-02-13T08:46:27.409Z,-1.81
2023-02-13T08:48:55.175Z,-1.88
2023-02-13T08:51:23.105Z,-1.90
2023-02-13T08:53:50.700Z,-1.98
2023-02-13T08:56:18.642Z,-2.07
2023-02-13T08:58:49.138Z,-2.19
2023-02-13T09:01:16.871Z,-2.31
2023-02-13T09:03:44.354Z,-2.39
2023-02-13T09:06:11.728Z,-2.41
2023-02-13T09:08:39.278Z,-2.39
2023-02-13T09:11:07.710Z,-2.35
2023-02-13T09:13:35.686Z,-2.29
2023-02-13T09:16:07.882Z,-2.22
2023-02-13T09:18:35.865Z,-2.25
2023-02-13T09:21:07.218Z,-2.15
2023-02-13T09:23:36.727Z,-2.04
2023-02-13T09:26:05.369Z,-1.95
2023-02-13T09:28:33.560Z,-1.86
2023-02-13T09:31:08.841Z,-1.80
2023-02-13T09:33:38.036Z,-1.69
2023-02-13T09:36:10.054Z,-1.63
2023-02-13T09:38:37.374Z,-1.66
2023-02-13T09:41:07.862Z,-1.71
2023-02-13T09:43:37.669Z,-1.75
2023-02-13T09:46:13.562Z,-1.73
2023-02-13T09:57:26.147Z,-1.69
2023-02-13T10:00:23.035Z,-1.79
2023-02-13T10:03:00.011Z,-1.78
2023-02-13T10:05:45.649Z,-1.83
2023-02-13T10:08:21.304Z,-1.77
2023-02-13T10:11:00.790Z,-1.63
2023-02-13T10:13:37.186Z,-1.57
2023-02-13T10:16:26.372Z,-1.65
2023-02-13T10:18:53.654Z,-1.78
2023-02-13T10:21:23.597Z,-1.86
2023-02-13T10:23:55.351Z,-1.94
2023-02-13T10:26:24.278Z,-2.00
2023-02-13T10:29:16.678Z,-2.05
2023-02-13T10:31:44.610Z,-2.02
2023-02-13T10:34:15.286Z,-1.99
2023-02-13T10:36:45.004Z,-2.01
2023-02-13T10:39:23.239Z,-2.05
2023-02-13T10:42:20.347Z,-2.06
2023-02-13T10:45:00.851Z,-2.03
2023-02-13T10:47:52.939Z,-2.04
2023-02-13T10:50:22.947Z,-2.12
2023-02-13T10:52:50.345Z,-2.19
2023-02-13T10:55:32.842Z,-2.20
2023-02-13T10:58:05.563Z,-2.25
2023-02-13T11:00:58.090Z,-2.22
2023-02-13T11:03:26.775Z,-2.28
2023-02-13T11:05:55.235Z,-2.33
2023-02-13T11:08:24.880Z,-2.35
2023-02-13T11:10:52.192Z,-2.36
2023-02-13T11:13:28.807Z,-2.35
2023-02-13T11:16:07.148Z,-2.42
2023-02-13T11:18:38.259Z,-2.55
2023-02-13T11:21:20.624Z,-2.50
2023-02-13T11:23:52.313Z,-2.41
2023-02-13T11:26:25.855Z,-2.32
2023-02-13T11:28:57.765Z,-2.28
2023-02-13T11:31:25.242Z,-2.32
2023-02-13T11:33:52.700Z,-2.37
2023-02-13T11:36:31.010Z,-2.38
2023-02-13T11:39:18.059Z,-2.31
2023-02-13T11:41:45.905Z,-2.32
2023-02-13T11:44:32.139Z,-2.34
2023-02-13T11:47:04.318Z,-2.37
2023-02-13T11:49:33.260Z,-2.29
2023-02-13T11:52:04.915Z,-2.28
2023-02-13T11:54:44.636Z,-2.25
2023-02-13T11:57:34.545Z,-2.17
2023-02-13T12:00:21.482Z,-2.17
2023-02-13T12:02:50.072Z,-2.20
2023-02-13T12:05:22.164Z,-2.22
2023-02-13T12:07:49.202Z,-2.21
2023-02-13T12:10:19.052Z,-2.26
2023-02-13T12:12:47.489Z,-2.34
2023-02-13T12:15:23.130Z,-2.34
2023-02-13T12:17:57.378Z,-2.31
2023-02-13T12:20:24.256Z,-2.34
2023-02-13T12:22:53.529Z,-2.31
2023-02-13T12:25:43.097Z,-2.30
2023-02-13T12:28:54.935Z,-2.22
2023-02-13T12:31:49.922Z,-2.18
2023-02-13T12:34:38.830Z,-2.14
2023-02-13T12:37:27.587Z,-2.12
2023-02-13T12:40:24.751Z,-2.11
2023-02-13T12:42:54.501Z,-2.11
2023-02-13T12:45:54.710Z,-2.14
2023-02-13T12:48:45.850Z,-2.12
2023-02-13T12:51:46.666Z,-2.11
2023-02-13T12:54:32.454Z,-2.13
2023-02-13T12:57:21.006Z,-2.08
2023-02-13T13:00:00.265Z,-2.01
2023-02-13T13:02:39.303Z,-1.92
2023-02-13T13:05:19.304Z,-1.85
2023-02-13T13:08:08.128Z,-1.76
2023-02-13T13:11:00.549Z,-1.65
2023-02-13T13:13:56.074Z,-1.61
2023-02-13T13:16:35.762Z,-1.58
2023-02-13T13:19:15.365Z,-1.52
2023-02-13T13:21:55.246Z,-1.44
2023-02-13T13:24:41.295Z,-1.39
2023-02-13T13:27:28.730Z,-1.37
2023-02-13T13:29:58.804Z,-1.38
2023-02-13T13:32:25.727Z,-1.31
2023-02-13T13:34:52.755Z,-1.22
2023-02-13T13:37:29.913Z,-1.22
2023-02-13T13:40:04.496Z,-1.20
2023-02-13T13:42:41.431Z,-1.19
2023-02-13T13:45:17.346Z,-1.16
2023-02-13T13:48:03.878Z,-1.13
2023-02-13T13:50:32.071Z,-1.09
2023-02-13T13:53:20.698Z,-1.07
2023-02-13T13:55:50.525Z,-0.99
2023-02-13T13:58:24.082Z,-0.96
2023-02-13T14:01:10.432Z,-0.93
2023-02-13T14:03:38.239Z,-0.95
2023-02-13T14:06:22.403Z,-0.91
2023-02-13T14:09:03.632Z,-0.85
2023-02-13T14:11:39.195Z,-0.88
2023-02-13T14:14:29.126Z,-0.90
2023-02-13T14:16:56.865Z,-0.91
2023-02-13T14:19:51.790Z,-0.88
2023-02-13T14:22:24.742Z,-0.88
2023-02-13T14:25:03.085Z,-0.91
2023-02-13T14:27:37.506Z,-0.84
2023-02-13T14:30:28.534Z,-0.75
2023-02-13T14:32:55.492Z,-0.69
2023-02-13T14:35:27.592Z,-0.69
2023-02-13T14:37:57.630Z,-0.71
2023-02-13T14:40:31.044Z,-0.69
2023-02-13T14:43:20.192Z,-0.69
2023-02-13T14:45:58.223Z,-0.70
2023-02-13T14:48:40.593Z,-0.71
2023-02-13T14:51:13.112Z,-0.68
2023-02-13T14:53:53.266Z,-0.67
2023-02-13T14:56:22.651Z,-0.73
2023-02-13T14:59:10.910Z,-0.73
2023-02-13T15:01:50.601Z,-0.72
2023-02-13T15:04:27.094Z,-0.74
2023-02-13T15:06:55.103Z,-0.80
2023-02-13T15:09:33.032Z,-0.79
2023-02-13T15:12:00.535Z,-0.71
2023-02-13T15:14:31.703Z,-0.69
2023-02-13T15:17:03.521Z,-0.67
2023-02-13T15:19:31.902Z,-0.70
2023-02-13T15:22:00.443Z,-0.67
2023-02-13T15:24:29.346Z,-0.68
2023-02-13T15:27:04.076Z,-0.76
2023-02-13T15:29:44.315Z,-0.75
2023-02-13T15:32:20.730Z,-0.73
2023-02-13T15:34:48.165Z,-0.73
2023-02-13T15:37:27.357Z,-0.74
2023-02-13T15:39:54.645Z,-0.72
2023-02-13T15:42:21.789Z,-0.67
2023-02-13T15:44:51.476Z,-0.63
2023-02-13T15:47:28.810Z,-0.66
2023-02-13T15:49:58.092Z,-0.69
2023-02-13T15:52:32.618Z,-0.65
2023-02-13T15:55:04.286Z,-0.64
2023-02-13T15:57:31.512Z,-0.63
2023-02-13T15:59:59.451Z,-0.62
2023-02-13T16:02:38.696Z,-0.67
2023-02-13T16:05:06.895Z,-0.62
2023-02-13T16:07:50.603Z,-0.60
2023-02-13T16:10:32.902Z,-0.66
2023-02-13T16:13:05.628Z,-0.66
2023-02-13T16:15:35.486Z,-0.59
2023-02-13T16:18:04.088Z,-0.57
2023-02-13T16:20:31.288Z,-0.58
2023-02-13T16:23:14.243Z,-0.61
2023-02-13T16:25:41.269Z,-0.60
2023-02-13T16:28:15.139Z,-0.56
2023-02-13T16:30:43.747Z,-0.61
2023-02-13T16:33:17.163Z,-0.59
2023-02-13T16:35:51.127Z,-0.58
2023-02-13T16:38:37.340Z,-0.58
2023-02-13T16:41:25.853Z,-0.60
2023-02-13T16:44:06.390Z,-0.56
2023-02-13T16:46:38.890Z,-0.56
2023-02-13T16:49:09.867Z,-0.57
2023-02-13T16:51:40.483Z,-0.56
2023-02-13T16:54:10.927Z,-0.48
2023-02-13T16:56:48.353Z,-0.42
2023-02-13T16:59:24.328Z,-0.39
2023-02-13T17:02:20.305Z,-0.39
2023-02-13T17:04:56.524Z,-0.41
2023-02-13T17:08:47.031Z,-0.37
2023-02-13T17:11:17.106Z,-0.40
2023-02-13T17:13:44.429Z,-0.43
2023-02-13T17:16:12.838Z,-0.44
2023-02-13T17:18:40.119Z,-0.44
2023-02-13T17:21:07.176Z,-0.48
2023-02-13T17:23:34.187Z,-0.51
2023-02-13T17:26:02.286Z,-0.55
2023-02-13T17:28:30.833Z,-0.50
2023-02-13T17:30:58.979Z,-0.57
2023-02-13T17:33:28.302Z,-0.59
2023-02-13T17:35:55.328Z,-0.60
2023-02-13T17:38:23.261Z,-0.58
2023-02-13T17:40:52.200Z,-0.58
2023-02-13T17:43:20.876Z,-0.62
2023-02-13T17:45:50.580Z,-0.61
2023-02-13T17:48:18.411Z,-0.56
2023-02-13T17:50:47.435Z,-0.55
2023-02-13T17:53:24.612Z,-0.55
2023-02-13T17:55:52.275Z,-0.54
2023-02-13T17:58:21.198Z,-0.53
2023-02-13T18:00:48.384Z,-0.56
2023-02-13T18:03:15.851Z,-0.57
2023-02-13T18:05:42.933Z,-0.61
2023-02-13T18:08:10.252Z,-0.58
2023-02-13T18:10:38.109Z,-0.59
2023-02-13T18:13:05.927Z,-0.61
2023-02-13T18:15:34.331Z,-0.56
2023-02-13T18:18:01.838Z,-0.55
2023-02-13T18:20:30.195Z,-0.57
2023-02-13T18:22:57.572Z,-0.59
2023-02-13T18:25:24.828Z,-0.60
2023-02-13T18:27:52.106Z,-0.55
2023-02-13T18:30:20.831Z,-0.58
2023-02-13T18:32:54.986Z,-0.55
2023-02-13T18:35:22.823Z,-0.52
2023-02-13T18:37:50.277Z,-0.56
2023-02-13T18:40:18.407Z,-0.60
2023-02-13T18:42:45.649Z,-0.58
2023-02-13T18:45:13.028Z,-0.57
2023-02-13T18:47:40.672Z,-0.60
2023-02-13T18:50:08.785Z,-0.61
2023-02-13T18:52:36.940Z,-0.59
2023-02-13T18:55:07.395Z,-0.61
2023-02-13T18:57:35.217Z,-0.58
2023-02-13T19:00:04.559Z,-0.57
2023-02-13T19:02:33.721Z,-0.52
2023-02-13T19:05:01.643Z,-0.50
2023-02-13T19:07:29.389Z,-0.52
2023-02-13T19:09:58.777Z,-0.50
2023-02-13T19:12:26.146Z,-0.48
2023-02-13T19:14:54.414Z,-0.46
2023-02-13T19:17:22.075Z,-0.49
2023-02-13T19:19:49.191Z,-0.48
2023-02-13T19:22:16.313Z,-0.43
2023-02-13T19:24:44.325Z,-0.43
2023-02-13T19:27:11.510Z,-0.43
2023-02-13T19:29:39.772Z,-0.43
2023-02-13T19:32:09.800Z,-0.37
2023-02-13T19:34:38.063Z,-0.34
2023-02-13T19:37:05.103Z,-0.37
2023-02-13T19:39:32.308Z,-0.37
2023-02-13T19:41:59.516Z,-0.34
2023-02-13T19:44:27.350Z,-0.32
2023-02-13T19:46:54.572Z,-0.37
2023-02-13T19:49:22.745Z,-0.33
2023-02-13T19:51:49.686Z,-0.29
2023-02-13T19:54:17.074Z,-0.27
2023-02-13T19:56:44.514Z,-0.31
2023-02-13T19:59:13.680Z,-0.33
2023-02-13T20:01:43.300Z,-0.32
2023-02-13T20:04:11.013Z,-0.40
2023-02-13T20:06:38.558Z,-0.42
2023-02-13T20:09:10.584Z,-0.41
2023-02-13T20:11:38.658Z,-0.35
2023-02-13T20:14:05.672Z,-0.34
2023-02-13T20:16:35.535Z,-0.36
2023-02-13T20:19:09.173Z,-0.35
2023-02-13T20:21:36.463Z,-0.35
2023-02-13T20:24:04.032Z,-0.36
2023-02-13T20:26:32.174Z,-0.39
2023-02-13T20:28:59.771Z,-0.31
2023-02-13T20:31:27.628Z,-0.32
2023-02-13T20:33:56.341Z,-0.34
2023-02-13T20:36:25.168Z,-0.35
2023-02-13T20:38:53.439Z,-0.33
2023-02-13T20:41:27.135Z,-0.30
2023-02-13T20:44:00.512Z,-0.22
2023-02-13T20:46:31.612Z,-0.27
2023-02-13T20:48:59.564Z,-0.23
2023-02-13T20:51:27.416Z,-0.16
2023-02-13T20:53:54.669Z,-0.13
2023-02-13T20:56:23.819Z,-0.17
2023-02-13T20:58:52.296Z,-0.20
2023-02-13T21:01:21.485Z,-0.15
2023-02-13T21:03:53.818Z,-0.21
2023-02-13T21:06:22.695Z,-0.24
2023-02-13T21:08:49.558Z,-0.31
2023-02-13T21:11:17.441Z,-0.28
2023-02-13T21:13:44.884Z,-0.23
2023-02-13T21:16:16.989Z,-0.18
2023-02-13T21:18:44.225Z,-0.16
2023-02-13T21:21:12.938Z,-0.21
2023-02-13T21:23:40.085Z,-0.15
2023-02-13T21:26:11.391Z,-0.08
2023-02-13T21:28:39.182Z,-0.06
2023-02-13T21:31:14.225Z,-0.04
2023-02-13T21:33:41.502Z,0.00
2023-02-13T21:36:11.145Z,0.05
2023-02-13T21:38:39.863Z,-0.01
2023-02-13T21:41:17.218Z,0.00
2023-02-13T21:43:46.866Z,-0.04
2023-02-13T21:46:19.494Z,-0.01
2023-02-13T21:48:47.276Z,-0.03
2023-02-13T21:51:18.893Z,0.02
2023-02-13T21:53:47.321Z,0.07
2023-02-13T21:56:17.497Z,0.01
2023-02-13T21:58:45.112Z,-0.03
2023-02-13T22:01:36.003Z,0.05
2023-02-13T22:04:05.896Z,0.09
2023-02-13T22:06:35.851Z,0.08
2023-02-13T22:09:10.411Z,0.03
2023-02-13T22:11:38.267Z,0.03
2023-02-13T22:14:07.861Z,0.02
2023-02-13T22:16:37.170Z,0.08
2023-02-13T22:19:08.879Z,0.06
2023-02-13T22:21:37.055Z,0.04
2023-02-13T22:24:04.435Z,0.07
2023-02-13T22:26:34.430Z,0.10
2023-02-13T22:29:08.038Z,0.05
2023-02-13T22:31:36.996Z,0.08
2023-02-13T22:34:05.822Z,0.11
2023-02-13T22:36:34.515Z,0.08
2023-02-13T22:39:01.900Z,0.09
2023-02-13T22:41:29.661Z,0.11
2023-02-13T22:43:57.614Z,0.17
2023-02-13T22:46:26.925Z,0.13
2023-02-13T22:48:54.916Z,0.09
2023-02-13T22:51:34.036Z,0.05
2023-02-13T22:54:01.560Z,-0.00
2023-02-13T22:56:29.763Z,-0.02
2023-02-13T22:58:58.952Z,-0.01
2023-02-13T23:01:30.646Z,0.03
2023-02-13T23:04:01.108Z,-0.01
2023-02-13T23:06:31.476Z,0.04
2023-02-13T23:09:01.258Z,0.12
2023-02-13T23:11:49.322Z,0.15
2023-02-13T23:14:19.980Z,0.15
2023-02-13T23:17:09.936Z,0.15
2023-02-13T23:19:39.519Z,0.13
2023-02-13T23:22:07.548Z,0.12
2023-02-13T23:24:35.352Z,0.16
2023-02-13T23:27:03.088Z,0.15
2023-02-13T23:29:30.956Z,0.09
2023-02-13T23:31:58.370Z,0.09
2023-02-13T23:34:25.837Z,0.08
2023-02-13T23:36:54.023Z,0.06
2023-02-13T23:39:24.575Z,0.03
2023-02-13T23:41:52.730Z,-0.02
2023-02-13T23:44:20.934Z,-0.08
2023-02-13T23:46:48.672Z,-0.09
2023-02-13T23:49:16.509Z,-0.08
2023-02-13T23:51:45.860Z,-0.07
2023-02-13T23:54:19.497Z,-0.04
2023-02-13T23:56:49.721Z,-0.04
2023-02-13T23:59:17.938Z,-0.13
